Homeport Seattle

Current conditions, outlook, and status of Seattle.

 



Today is Prickle-Prickle, the 7th day of The Aftermath in the YOLD 3187

Content-type:text/html SDOT BRIDGE MINDER

Seattle Bridges

05:00:37 PM

Ballard OPEN   10:37:14 PM

Fremont OPEN   10:37:21 PM

University OPEN   10:37:14 PM

Montlake OPEN   10:37:38 PM

Lower Spokane OPEN   10:37:14 PM

1st Ave S OPEN   10:37:14 PM

South Park OPEN   12:50:54 PM

Note: Bridge data is only as reliable as the
@sdotbridges Twitter feed.




Seattle Tides

Click images to embiggen or to change display options




Content-type:text/html

national weather service

2021/10/25 23:53 KSEA 252353Z 17016G24KT 10SM -RA BKN040 OVC070 11/08 A2951 RMK AO2 PK WND 18026/2341 RAE07B25 SLP999 P0000 60003 T01110078 10139 20111 53027
2021/10/25 23:53 KBFI 252353Z 16012G22KT 10SM -RA SCT030 BKN040 OVC055 12/09 A2951 RMK AO2 RAE11B29 SLP993 P0000 60001 T01170089 10150 20117 51027


  KSEA KBFI
  SeaTac Airport Boeing Field
day: 25 25
time: 2353 2353
type: Automated Automated
cond: Light Rain Light Rain
     
Winds    
     
mph: 18 13
mph gusting: 27 25
kts: 16 12
kts gusting: 24 22
direction: 170 160
direction: South South
     
Temperature and Humidity    
     
temp F: 51 53
dew point F: 46 48
temp C: 11 12
dew point C: 08 09
rel. humidity: 81 81
     
windchill F: 45 48
windchill C: 7 8
heat index F: 88 83
heat index C: 31 28
     
Clouds and Visibility    
     
cloud cover: Cloudy Cloudy
visibility mi: 10 10
visibility km: 16 16
     
Air pressure    
     
in HG: 29.51 29.51
mm HG: 749 749
kg/cm: 1.019027516 1.019027516
psi: 14.49395454 14.49395454
millibar: 999 999
     
Experimental and Esoteric    
     
prec tmp: T01110078 T01170089
storm:
sea inHG: 29.52 29.50
sea mmHG: 749 749
sea kgcm: 1.019618028 1.019006196
sea psi: 14.50234962 14.49364734
sea mbar: 999 999
     



NOAA Weather Radio Seattle -- KHB60
[ continuous ]

KHB60 coverage map

[ view larger map ]

 


2021.10.26

0 : 00 UTC


Local Metric Time

0.00


Unix epoch

1635206437

stardate

 

External Links

weather

[ NOAA weather radio ]

Fire Department 911 Incidents

another date (mm/dd/yyyy)

Puget Sound Waters

salish sea hydrophone network

[ Home || seattle aquarium | pt. townsend | san juan isl | lime kiln s.p ]

Traffic

KC DOT Cameras

 


- * - poop - * -